Terminal Aerodrome Forecast
Issued by NWS

Home | Current Version | Previous Version | Text Only | Print | Product List | Glossary On
Versions: 1 2 3 4 5 6 7 8 9 10 11 12 13 14 15 16 17 18
905
FTUS42 KJAX 262339
TAFVQQ
TAF
KVQQ 262339Z 2700/2724 00000KT P6SM SKC
     FM271400 13010G15KT P6SM SCT035
     FM272000 12011G16KT P6SM VCTS SCT035CB SCT060 BKN150=

USA.gov is the U.S. government's official web portal to all federal, state and local government web resources and services.